sensor_id;sensor_type;location;lat;lon;timestamp;temperature;humidity
16970;DHT22;8601;48.718;8.992;2022-12-15T00:01:47;-1.30;99.90
16970;DHT22;8601;48.718;8.992;2022-12-15T00:04:31;-1.30;99.90
16970;DHT22;8601;48.718;8.992;2022-12-15T00:07:16;-1.30;99.90
16970;DHT22;8601;48.718;8.992;2022-12-15T00:10:01;-1.30;99.90
16970;DHT22;8601;48.718;8.992;2022-12-15T00:12:45;-1.30;99.90
16970;DHT22;8601;48.718;8.992;2022-12-15T00:15:31;-1.30;99.90
16970;DHT22;8601;48.718;8.992;2022-12-15T00:18:15;-1.30;99.90
16970;DHT22;8601;48.718;8.992;2022-12-15T00:21:00;-1.30;99.90
16970;DHT22;8601;48.718;8.992;2022-12-15T00:23:44;-1.40;99.90
16970;DHT22;8601;48.718;8.992;2022-12-15T00:26:29;-1.40;99.90
16970;DHT22;8601;48.718;8.992;2022-12-15T00:29:13;-1.40;99.90
16970;DHT22;8601;48.718;8.992;2022-12-15T00:31:59;-1.40;99.90
16970;DHT22;8601;48.718;8.992;2022-12-15T00:34:43;-1.30;99.90
16970;DHT22;8601;48.718;8.992;2022-12-15T00:37:27;-1.30;99.90
16970;DHT22;8601;48.718;8.992;2022-12-15T00:40:12;-1.20;99.90
16970;DHT22;8601;48.718;8.992;2022-12-15T00:42:39;-1.30;99.90
16970;DHT22;8601;48.718;8.992;2022-12-15T00:45:07;-1.30;99.90
16970;DHT22;8601;48.718;8.992;2022-12-15T00:47:36;-1.30;99.90
16970;DHT22;8601;48.718;8.992;2022-12-15T00:50:02;-1.30;99.90
16970;DHT22;8601;48.718;8.992;2022-12-15T00:52:43;-1.30;99.90
16970;DHT22;8601;48.718;8.992;2022-12-15T00:55:27;-1.30;99.90
16970;DHT22;8601;48.718;8.992;2022-12-15T00:58:11;-1.30;99.90
16970;DHT22;8601;48.718;8.992;2022-12-15T01:00:56;-1.30;99.90
16970;DHT22;8601;48.718;8.992;2022-12-15T01:03:42;-1.20;99.90
16970;DHT22;8601;48.718;8.992;2022-12-15T01:06:26;-1.30;99.90
16970;DHT22;8601;48.718;8.992;2022-12-15T01:09:12;-1.30;99.90
16970;DHT22;8601;48.718;8.992;2022-12-15T01:11:56;-1.30;99.90
16970;DHT22;8601;48.718;8.992;2022-12-15T01:14:40;-1.30;99.90
16970;DHT22;8601;48.718;8.992;2022-12-15T01:17:24;-1.30;99.90
16970;DHT22;8601;48.718;8.992;2022-12-15T01:20:10;-1.40;99.90
16970;DHT22;8601;48.718;8.992;2022-12-15T01:22:53;-1.30;99.90
16970;DHT22;8601;48.718;8.992;2022-12-15T01:25:23;-1.30;99.90
16970;DHT22;8601;48.718;8.992;2022-12-15T01:27:50;-1.30;99.90
16970;DHT22;8601;48.718;8.992;2022-12-15T01:30:19;-1.30;99.90
16970;DHT22;8601;48.718;8.992;2022-12-15T01:32:46;-1.30;99.90
16970;DHT22;8601;48.718;8.992;2022-12-15T01:35:15;-1.30;99.90
16970;DHT22;8601;48.718;8.992;2022-12-15T01:37:42;-1.30;99.90
16970;DHT22;8601;48.718;8.992;2022-12-15T01:40:13;-1.30;99.90
16970;DHT22;8601;48.718;8.992;2022-12-15T01:42:57;-1.30;99.90
16970;DHT22;8601;48.718;8.992;2022-12-15T01:45:46;-1.30;99.90
16970;DHT22;8601;48.718;8.992;2022-12-15T01:48:18;-1.30;99.90
16970;DHT22;8601;48.718;8.992;2022-12-15T01:50:54;-1.20;99.90
16970;DHT22;8601;48.718;8.992;2022-12-15T01:53:25;-1.20;99.90
16970;DHT22;8601;48.718;8.992;2022-12-15T01:55:52;-1.30;99.90
16970;DHT22;8601;48.718;8.992;2022-12-15T01:58:19;-1.30;99.90
16970;DHT22;8601;48.718;8.992;2022-12-15T02:00:47;-1.30;99.90
16970;DHT22;8601;48.718;8.992;2022-12-15T02:03:21;-1.30;99.90
16970;DHT22;8601;48.718;8.992;2022-12-15T02:05:50;-1.30;99.90
16970;DHT22;8601;48.718;8.992;2022-12-15T02:08:18;-1.30;99.90
16970;DHT22;8601;48.718;8.992;2022-12-15T02:13:44;-1.30;99.90
16970;DHT22;8601;48.718;8.992;2022-12-15T02:16:24;-1.30;99.90
16970;DHT22;8601;48.718;8.992;2022-12-15T02:18:59;-1.40;99.90
16970;DHT22;8601;48.718;8.992;2022-12-15T02:21:37;-1.30;99.90
16970;DHT22;8601;48.718;8.992;2022-12-15T02:27:20;-1.20;99.90
16970;DHT22;8601;48.718;8.992;2022-12-15T02:30:29;-1.30;99.90
16970;DHT22;8601;48.718;8.992;2022-12-15T02:33:13;-1.20;99.90
16970;DHT22;8601;48.718;8.992;2022-12-15T02:35:53;-1.20;99.90
16970;DHT22;8601;48.718;8.992;2022-12-15T02:38:31;-1.20;99.90
16970;DHT22;8601;48.718;8.992;2022-12-15T02:40:59;-1.20;99.90
16970;DHT22;8601;48.718;8.992;2022-12-15T02:43:28;-1.20;99.90
16970;DHT22;8601;48.718;8.992;2022-12-15T02:46:08;-1.20;99.90
16970;DHT22;8601;48.718;8.992;2022-12-15T02:48:45;-1.10;99.90
16970;DHT22;8601;48.718;8.992;2022-12-15T02:51:23;-1.20;99.90
16970;DHT22;8601;48.718;8.992;2022-12-15T02:57:00;-1.20;99.90
16970;DHT22;8601;48.718;8.992;2022-12-15T02:59:37;-1.20;99.90
16970;DHT22;8601;48.718;8.992;2022-12-15T03:02:07;-1.20;99.90
16970;DHT22;8601;48.718;8.992;2022-12-15T03:04:35;-1.20;99.90
16970;DHT22;8601;48.718;8.992;2022-12-15T03:07:04;-1.20;99.90
16970;DHT22;8601;48.718;8.992;2022-12-15T03:09:31;-1.30;99.90
16970;DHT22;8601;48.718;8.992;2022-12-15T03:11:58;-1.20;99.90
16970;DHT22;8601;48.718;8.992;2022-12-15T03:14:26;-1.20;99.90
16970;DHT22;8601;48.718;8.992;2022-12-15T03:16:54;-1.20;99.90
16970;DHT22;8601;48.718;8.992;2022-12-15T03:19:22;-1.20;99.90
16970;DHT22;8601;48.718;8.992;2022-12-15T03:21:50;-1.20;99.90
16970;DHT22;8601;48.718;8.992;2022-12-15T03:24:17;-1.20;99.90
16970;DHT22;8601;48.718;8.992;2022-12-15T03:26:44;-1.30;99.90
16970;DHT22;8601;48.718;8.992;2022-12-15T03:29:14;-1.30;99.90
16970;DHT22;8601;48.718;8.992;2022-12-15T03:31:41;-1.40;99.90
16970;DHT22;8601;48.718;8.992;2022-12-15T03:34:08;-1.30;99.90
16970;DHT22;8601;48.718;8.992;2022-12-15T03:36:37;-1.40;99.90
16970;DHT22;8601;48.718;8.992;2022-12-15T03:39:04;-1.40;99.90
16970;DHT22;8601;48.718;8.992;2022-12-15T03:41:31;-1.40;99.90
16970;DHT22;8601;48.718;8.992;2022-12-15T03:43:58;-1.30;99.90
16970;DHT22;8601;48.718;8.992;2022-12-15T03:46:25;-1.40;99.90
16970;DHT22;8601;48.718;8.992;2022-12-15T03:48:53;-1.40;99.90
16970;DHT22;8601;48.718;8.992;2022-12-15T03:51:20;-1.40;99.90
16970;DHT22;8601;48.718;8.992;2022-12-15T03:53:49;-1.40;99.90
16970;DHT22;8601;48.718;8.992;2022-12-15T03:56:16;-1.40;99.90
16970;DHT22;8601;48.718;8.992;2022-12-15T03:58:44;-1.30;99.90
16970;DHT22;8601;48.718;8.992;2022-12-15T04:01:16;-1.30;99.90
16970;DHT22;8601;48.718;8.992;2022-12-15T04:03:44;-1.30;99.90
16970;DHT22;8601;48.718;8.992;2022-12-15T04:06:11;-1.40;99.90
16970;DHT22;8601;48.718;8.992;2022-12-15T04:08:38;-1.40;99.90
16970;DHT22;8601;48.718;8.992;2022-12-15T04:11:06;-1.30;99.90
16970;DHT22;8601;48.718;8.992;2022-12-15T04:13:34;-1.30;99.90
16970;DHT22;8601;48.718;8.992;2022-12-15T04:16:02;-1.30;99.90
16970;DHT22;8601;48.718;8.992;2022-12-15T04:18:29;-1.30;99.90
16970;DHT22;8601;48.718;8.992;2022-12-15T04:20:56;-1.20;99.90
16970;DHT22;8601;48.718;8.992;2022-12-15T04:23:22;-1.20;99.90
16970;DHT22;8601;48.718;8.992;2022-12-15T04:25:49;-1.20;99.90
16970;DHT22;8601;48.718;8.992;2022-12-15T04:28:34;-1.30;99.90
16970;DHT22;8601;48.718;8.992;2022-12-15T04:31:22;-1.40;99.90
16970;DHT22;8601;48.718;8.992;2022-12-15T04:34:11;-1.30;99.90
16970;DHT22;8601;48.718;8.992;2022-12-15T04:36:56;-1.30;99.90
16970;DHT22;8601;48.718;8.992;2022-12-15T04:39:49;-1.40;99.90
16970;DHT22;8601;48.718;8.992;2022-12-15T04:42:43;-1.30;99.90
16970;DHT22;8601;48.718;8.992;2022-12-15T04:45:30;-1.40;99.90
16970;DHT22;8601;48.718;8.992;2022-12-15T04:48:14;-1.40;99.90
16970;DHT22;8601;48.718;8.992;2022-12-15T04:51:08;-1.40;99.90
16970;DHT22;8601;48.718;8.992;2022-12-15T04:53:52;-1.40;99.90
16970;DHT22;8601;48.718;8.992;2022-12-15T04:56:37;-1.40;99.90
16970;DHT22;8601;48.718;8.992;2022-12-15T04:59:21;-1.50;99.90
16970;DHT22;8601;48.718;8.992;2022-12-15T05:02:07;-1.50;99.90
16970;DHT22;8601;48.718;8.992;2022-12-15T05:04:51;-1.50;99.90
16970;DHT22;8601;48.718;8.992;2022-12-15T05:07:36;-1.50;99.90
16970;DHT22;8601;48.718;8.992;2022-12-15T05:10:20;-1.40;99.90
16970;DHT22;8601;48.718;8.992;2022-12-15T05:13:05;-1.40;99.90
16970;DHT22;8601;48.718;8.992;2022-12-15T05:15:50;-1.40;99.90
16970;DHT22;8601;48.718;8.992;2022-12-15T05:18:36;-1.40;99.90
16970;DHT22;8601;48.718;8.992;2022-12-15T05:21:21;-1.40;99.90
16970;DHT22;8601;48.718;8.992;2022-12-15T05:24:05;-1.40;99.90
16970;DHT22;8601;48.718;8.992;2022-12-15T05:30:12;-1.50;99.90
16970;DHT22;8601;48.718;8.992;2022-12-15T05:32:56;-1.40;99.90
16970;DHT22;8601;48.718;8.992;2022-12-15T05:35:24;-1.40;99.90
16970;DHT22;8601;48.718;8.992;2022-12-15T05:37:51;-1.40;99.90
16970;DHT22;8601;48.718;8.992;2022-12-15T05:40:18;-1.40;99.90
16970;DHT22;8601;48.718;8.992;2022-12-15T05:42:45;-1.40;99.90
16970;DHT22;8601;48.718;8.992;2022-12-15T05:45:12;-1.40;99.90
16970;DHT22;8601;48.718;8.992;2022-12-15T05:47:49;-1.40;99.90
16970;DHT22;8601;48.718;8.992;2022-12-15T05:50:17;-1.40;99.90
16970;DHT22;8601;48.718;8.992;2022-12-15T05:52:45;-1.40;99.90
16970;DHT22;8601;48.718;8.992;2022-12-15T05:55:25;-1.40;99.90
16970;DHT22;8601;48.718;8.992;2022-12-15T05:57:52;-1.40;99.90
16970;DHT22;8601;48.718;8.992;2022-12-15T06:00:20;-1.40;99.90
16970;DHT22;8601;48.718;8.992;2022-12-15T06:02:47;-0.40;99.90
16970;DHT22;8601;48.718;8.992;2022-12-15T06:05:14;-0.60;99.90
16970;DHT22;8601;48.718;8.992;2022-12-15T06:07:41;-0.90;99.90
16970;DHT22;8601;48.718;8.992;2022-12-15T06:10:11;-1.00;99.90
16970;DHT22;8601;48.718;8.992;2022-12-15T06:12:38;-1.10;99.90
16970;DHT22;8601;48.718;8.992;2022-12-15T06:15:05;-1.10;99.90
16970;DHT22;8601;48.718;8.992;2022-12-15T06:17:32;-1.20;99.90
16970;DHT22;8601;48.718;8.992;2022-12-15T06:19:59;-1.20;99.90
16970;DHT22;8601;48.718;8.992;2022-12-15T06:22:27;-1.20;99.90
16970;DHT22;8601;48.718;8.992;2022-12-15T06:24:54;-1.20;99.90
16970;DHT22;8601;48.718;8.992;2022-12-15T06:27:22;-1.20;99.90
16970;DHT22;8601;48.718;8.992;2022-12-15T06:29:56;-1.30;99.90
16970;DHT22;8601;48.718;8.992;2022-12-15T06:32:23;-1.30;99.90
16970;DHT22;8601;48.718;8.992;2022-12-15T06:34:50;-1.30;99.90
16970;DHT22;8601;48.718;8.992;2022-12-15T06:37:17;-1.20;99.90
16970;DHT22;8601;48.718;8.992;2022-12-15T06:39:44;-1.30;99.90
16970;DHT22;8601;48.718;8.992;2022-12-15T06:42:11;-1.30;99.90
16970;DHT22;8601;48.718;8.992;2022-12-15T06:44:40;-1.30;99.90
16970;DHT22;8601;48.718;8.992;2022-12-15T06:47:07;-1.20;99.90
16970;DHT22;8601;48.718;8.992;2022-12-15T06:49:34;-1.20;99.90
16970;DHT22;8601;48.718;8.992;2022-12-15T06:52:01;-1.20;99.90
16970;DHT22;8601;48.718;8.992;2022-12-15T06:54:28;-1.30;99.90
16970;DHT22;8601;48.718;8.992;2022-12-15T06:57:06;-1.20;99.90
16970;DHT22;8601;48.718;8.992;2022-12-15T06:59:33;-1.30;99.90
16970;DHT22;8601;48.718;8.992;2022-12-15T07:02:01;-1.30;99.90
16970;DHT22;8601;48.718;8.992;2022-12-15T07:04:31;-1.30;99.90
16970;DHT22;8601;48.718;8.992;2022-12-15T07:06:57;-1.30;99.90
16970;DHT22;8601;48.718;8.992;2022-12-15T07:09:24;-1.40;99.90
16970;DHT22;8601;48.718;8.992;2022-12-15T07:12:07;-1.40;99.90
16970;DHT22;8601;48.718;8.992;2022-12-15T07:14:35;-1.30;99.90
16970;DHT22;8601;48.718;8.992;2022-12-15T07:17:03;-1.30;99.90
16970;DHT22;8601;48.718;8.992;2022-12-15T07:19:30;-1.30;99.90
16970;DHT22;8601;48.718;8.992;2022-12-15T07:21:57;-1.30;99.90
16970;DHT22;8601;48.718;8.992;2022-12-15T07:24:25;-1.30;99.90
16970;DHT22;8601;48.718;8.992;2022-12-15T07:26:52;-1.20;99.90
16970;DHT22;8601;48.718;8.992;2022-12-15T07:29:19;-1.10;99.90
16970;DHT22;8601;48.718;8.992;2022-12-15T07:31:46;-1.10;99.90
16970;DHT22;8601;48.718;8.992;2022-12-15T07:34:15;-1.20;99.90
16970;DHT22;8601;48.718;8.992;2022-12-15T07:36:42;-1.20;99.90
16970;DHT22;8601;48.718;8.992;2022-12-15T07:39:09;-1.10;99.90
16970;DHT22;8601;48.718;8.992;2022-12-15T07:41:37;-1.20;99.90
16970;DHT22;8601;48.718;8.992;2022-12-15T07:44:04;-1.20;99.90
16970;DHT22;8601;48.718;8.992;2022-12-15T07:46:55;-1.20;99.90
16970;DHT22;8601;48.718;8.992;2022-12-15T07:49:23;-1.20;99.90
16970;DHT22;8601;48.718;8.992;2022-12-15T07:51:50;-1.20;99.90
16970;DHT22;8601;48.718;8.992;2022-12-15T07:54:17;-1.20;99.90
16970;DHT22;8601;48.718;8.992;2022-12-15T07:56:45;-1.10;99.90
16970;DHT22;8601;48.718;8.992;2022-12-15T07:59:12;-1.00;99.90
16970;DHT22;8601;48.718;8.992;2022-12-15T08:01:39;-1.10;99.90
16970;DHT22;8601;48.718;8.992;2022-12-15T08:04:30;-1.00;99.90
16970;DHT22;8601;48.718;8.992;2022-12-15T08:06:57;-1.00;99.90
16970;DHT22;8601;48.718;8.992;2022-12-15T08:09:24;-1.00;99.90
16970;DHT22;8601;48.718;8.992;2022-12-15T08:12:10;-0.90;99.90
16970;DHT22;8601;48.718;8.992;2022-12-15T08:14:37;-0.90;99.90
16970;DHT22;8601;48.718;8.992;2022-12-15T08:17:04;-0.80;99.90
16970;DHT22;8601;48.718;8.992;2022-12-15T08:19:33;-0.80;99.90
16970;DHT22;8601;48.718;8.992;2022-12-15T08:22:00;-0.80;99.90
16970;DHT22;8601;48.718;8.992;2022-12-15T08:24:26;-0.80;99.90
16970;DHT22;8601;48.718;8.992;2022-12-15T08:26:53;-0.80;99.90
16970;DHT22;8601;48.718;8.992;2022-12-15T08:29:20;-0.80;99.90
16970;DHT22;8601;48.718;8.992;2022-12-15T08:32:02;-0.80;99.90
16970;DHT22;8601;48.718;8.992;2022-12-15T08:34:30;-0.80;99.90
16970;DHT22;8601;48.718;8.992;2022-12-15T08:36:58;-0.80;99.90
16970;DHT22;8601;48.718;8.992;2022-12-15T08:39:25;-0.80;99.90
16970;DHT22;8601;48.718;8.992;2022-12-15T08:41:51;-0.60;99.90
16970;DHT22;8601;48.718;8.992;2022-12-15T08:44:20;-0.60;99.90
16970;DHT22;8601;48.718;8.992;2022-12-15T08:46:47;-0.50;99.90
16970;DHT22;8601;48.718;8.992;2022-12-15T08:49:14;-0.60;99.90
16970;DHT22;8601;48.718;8.992;2022-12-15T08:51:41;-0.50;99.90
16970;DHT22;8601;48.718;8.992;2022-12-15T08:54:09;-0.50;99.90
16970;DHT22;8601;48.718;8.992;2022-12-15T08:56:36;-0.50;99.90
16970;DHT22;8601;48.718;8.992;2022-12-15T08:59:03;-0.50;99.90
16970;DHT22;8601;48.718;8.992;2022-12-15T09:01:30;-0.40;99.90
16970;DHT22;8601;48.718;8.992;2022-12-15T09:04:12;-0.40;99.90
16970;DHT22;8601;48.718;8.992;2022-12-15T09:06:38;-0.40;99.90
16970;DHT22;8601;48.718;8.992;2022-12-15T09:09:07;-0.40;99.90
16970;DHT22;8601;48.718;8.992;2022-12-15T09:11:37;-0.40;99.90
16970;DHT22;8601;48.718;8.992;2022-12-15T09:14:05;-0.40;99.90
16970;DHT22;8601;48.718;8.992;2022-12-15T09:16:32;-0.30;99.90
16970;DHT22;8601;48.718;8.992;2022-12-15T09:18:59;-0.30;99.90
16970;DHT22;8601;48.718;8.992;2022-12-15T09:21:28;-0.30;99.90
16970;DHT22;8601;48.718;8.992;2022-12-15T09:23:56;-0.30;99.90
16970;DHT22;8601;48.718;8.992;2022-12-15T09:26:25;-0.20;99.90
16970;DHT22;8601;48.718;8.992;2022-12-15T09:28:53;-0.30;99.90
16970;DHT22;8601;48.718;8.992;2022-12-15T09:31:23;-0.10;99.90
16970;DHT22;8601;48.718;8.992;2022-12-15T09:33:53;-0.20;99.90
16970;DHT22;8601;48.718;8.992;2022-12-15T09:36:21;-0.20;99.90
16970;DHT22;8601;48.718;8.992;2022-12-15T09:38:48;-0.10;99.90
16970;DHT22;8601;48.718;8.992;2022-12-15T09:41:20;0.00;99.90
16970;DHT22;8601;48.718;8.992;2022-12-15T09:43:53;-0.10;99.90
16970;DHT22;8601;48.718;8.992;2022-12-15T09:46:26;0.00;99.90
16970;DHT22;8601;48.718;8.992;2022-12-15T09:48:58;0.00;99.90
16970;DHT22;8601;48.718;8.992;2022-12-15T09:51:31;0.00;99.90
16970;DHT22;8601;48.718;8.992;2022-12-15T09:53:59;0.10;99.90
16970;DHT22;8601;48.718;8.992;2022-12-15T09:56:35;0.20;99.90
16970;DHT22;8601;48.718;8.992;2022-12-15T09:59:18;0.30;99.90
16970;DHT22;8601;48.718;8.992;2022-12-15T10:01:55;0.40;99.90
16970;DHT22;8601;48.718;8.992;2022-12-15T10:04:32;0.30;99.90
16970;DHT22;8601;48.718;8.992;2022-12-15T10:07:10;0.30;99.90
16970;DHT22;8601;48.718;8.992;2022-12-15T10:09:40;0.30;99.90
16970;DHT22;8601;48.718;8.992;2022-12-15T10:12:12;0.30;99.90
16970;DHT22;8601;48.718;8.992;2022-12-15T10:14:48;0.40;99.90
16970;DHT22;8601;48.718;8.992;2022-12-15T10:17:24;0.40;99.90
16970;DHT22;8601;48.718;8.992;2022-12-15T10:19:54;0.40;99.90
16970;DHT22;8601;48.718;8.992;2022-12-15T10:22:28;0.40;99.90
16970;DHT22;8601;48.718;8.992;2022-12-15T10:24:59;0.40;99.90
16970;DHT22;8601;48.718;8.992;2022-12-15T10:27:44;0.20;99.90
16970;DHT22;8601;48.718;8.992;2022-12-15T10:30:16;0.20;99.90
16970;DHT22;8601;48.718;8.992;2022-12-15T10:32:48;0.20;99.90
16970;DHT22;8601;48.718;8.992;2022-12-15T10:35:19;0.30;99.90
16970;DHT22;8601;48.718;8.992;2022-12-15T10:37:46;0.20;99.90
16970;DHT22;8601;48.718;8.992;2022-12-15T10:40:45;0.20;99.90
16970;DHT22;8601;48.718;8.992;2022-12-15T10:43:16;0.20;99.90
16970;DHT22;8601;48.718;8.992;2022-12-15T10:45:59;0.10;99.90
16970;DHT22;8601;48.718;8.992;2022-12-15T10:48:26;0.10;99.90
16970;DHT22;8601;48.718;8.992;2022-12-15T10:51:13;0.10;99.90
16970;DHT22;8601;48.718;8.992;2022-12-15T10:53:42;0.10;99.90
16970;DHT22;8601;48.718;8.992;2022-12-15T10:56:20;0.10;99.90
16970;DHT22;8601;48.718;8.992;2022-12-15T10:58:50;0.10;99.90
16970;DHT22;8601;48.718;8.992;2022-12-15T11:01:21;0.20;99.90
16970;DHT22;8601;48.718;8.992;2022-12-15T11:03:50;0.10;99.90
16970;DHT22;8601;48.718;8.992;2022-12-15T11:06:19;0.00;99.90
16970;DHT22;8601;48.718;8.992;2022-12-15T11:08:48;0.00;99.90
16970;DHT22;8601;48.718;8.992;2022-12-15T11:11:30;0.00;99.90
16970;DHT22;8601;48.718;8.992;2022-12-15T11:14:19;0.00;99.90
16970;DHT22;8601;48.718;8.992;2022-12-15T11:16:52;-0.10;99.90
16970;DHT22;8601;48.718;8.992;2022-12-15T11:19:34;-0.10;99.90
16970;DHT22;8601;48.718;8.992;2022-12-15T11:22:10;-0.10;99.90
16970;DHT22;8601;48.718;8.992;2022-12-15T11:24:44;0.00;99.90
16970;DHT22;8601;48.718;8.992;2022-12-15T11:27:17;0.00;99.90
16970;DHT22;8601;48.718;8.992;2022-12-15T11:29:56;0.10;99.90
16970;DHT22;8601;48.718;8.992;2022-12-15T11:32:45;0.10;99.90
16970;DHT22;8601;48.718;8.992;2022-12-15T11:35:14;0.20;99.90
16970;DHT22;8601;48.718;8.992;2022-12-15T11:37:43;0.10;99.90
16970;DHT22;8601;48.718;8.992;2022-12-15T11:40:34;0.10;99.90
16970;DHT22;8601;48.718;8.992;2022-12-15T11:43:33;0.20;99.90
16970;DHT22;8601;48.718;8.992;2022-12-15T11:46:17;0.30;99.90
16970;DHT22;8601;48.718;8.992;2022-12-15T11:48:56;0.40;99.90
16970;DHT22;8601;48.718;8.992;2022-12-15T11:51:34;0.40;99.90
16970;DHT22;8601;48.718;8.992;2022-12-15T11:54:14;0.40;99.90
16970;DHT22;8601;48.718;8.992;2022-12-15T11:56:46;0.50;99.90
16970;DHT22;8601;48.718;8.992;2022-12-15T11:59:42;0.60;99.90
16970;DHT22;8601;48.718;8.992;2022-12-15T12:02:25;0.40;99.90
16970;DHT22;8601;48.718;8.992;2022-12-15T12:07:46;0.40;99.90
16970;DHT22;8601;48.718;8.992;2022-12-15T12:10:24;0.50;99.90
16970;DHT22;8601;48.718;8.992;2022-12-15T12:12:59;0.50;99.90
16970;DHT22;8601;48.718;8.992;2022-12-15T12:15:33;0.70;99.90
16970;DHT22;8601;48.718;8.992;2022-12-15T12:18:06;0.70;99.90
16970;DHT22;8601;48.718;8.992;2022-12-15T12:20:44;0.70;99.90
16970;DHT22;8601;48.718;8.992;2022-12-15T12:23:16;0.70;99.90
16970;DHT22;8601;48.718;8.992;2022-12-15T12:25:57;0.80;99.90
16970;DHT22;8601;48.718;8.992;2022-12-15T12:28:31;0.90;99.90
16970;DHT22;8601;48.718;8.992;2022-12-15T12:31:24;0.90;99.90
16970;DHT22;8601;48.718;8.992;2022-12-15T12:33:54;0.80;99.90
16970;DHT22;8601;48.718;8.992;2022-12-15T12:36:25;0.90;99.90
16970;DHT22;8601;48.718;8.992;2022-12-15T12:38:54;0.90;99.90
16970;DHT22;8601;48.718;8.992;2022-12-15T12:41:28;1.00;99.90
16970;DHT22;8601;48.718;8.992;2022-12-15T12:43:59;1.00;99.90
16970;DHT22;8601;48.718;8.992;2022-12-15T12:46:30;1.00;99.90
16970;DHT22;8601;48.718;8.992;2022-12-15T12:49:03;1.00;99.90
16970;DHT22;8601;48.718;8.992;2022-12-15T12:51:33;1.00;99.90
16970;DHT22;8601;48.718;8.992;2022-12-15T12:54:01;1.00;99.90
16970;DHT22;8601;48.718;8.992;2022-12-15T12:56:39;1.00;99.90
16970;DHT22;8601;48.718;8.992;2022-12-15T12:59:35;0.90;99.90
16970;DHT22;8601;48.718;8.992;2022-12-15T13:05:27;0.90;99.90
16970;DHT22;8601;48.718;8.992;2022-12-15T13:14:46;0.90;99.90
16970;DHT22;8601;48.718;8.992;2022-12-15T13:17:24;0.70;99.90
16970;DHT22;8601;48.718;8.992;2022-12-15T13:20:20;0.50;99.90
16970;DHT22;8601;48.718;8.992;2022-12-15T13:22:48;0.50;99.90
16970;DHT22;8601;48.718;8.992;2022-12-15T13:25:37;0.50;99.90
16970;DHT22;8601;48.718;8.992;2022-12-15T13:28:27;0.50;99.90
16970;DHT22;8601;48.718;8.992;2022-12-15T13:37:51;0.50;99.90
16970;DHT22;8601;48.718;8.992;2022-12-15T13:40:30;0.50;99.90
16970;DHT22;8601;48.718;8.992;2022-12-15T13:43:07;0.60;99.90
16970;DHT22;8601;48.718;8.992;2022-12-15T13:45:48;0.50;99.90
16970;DHT22;8601;48.718;8.992;2022-12-15T13:48:29;0.40;99.90
16970;DHT22;8601;48.718;8.992;2022-12-15T13:51:02;0.40;99.90
16970;DHT22;8601;48.718;8.992;2022-12-15T13:53:37;0.30;99.90
16970;DHT22;8601;48.718;8.992;2022-12-15T13:56:24;0.40;99.90
16970;DHT22;8601;48.718;8.992;2022-12-15T13:58:58;0.40;99.90
16970;DHT22;8601;48.718;8.992;2022-12-15T14:01:27;0.40;99.90
16970;DHT22;8601;48.718;8.992;2022-12-15T14:04:02;0.40;99.90
16970;DHT22;8601;48.718;8.992;2022-12-15T14:06:34;0.40;99.90
16970;DHT22;8601;48.718;8.992;2022-12-15T14:09:02;0.20;99.90
16970;DHT22;8601;48.718;8.992;2022-12-15T14:11:34;0.20;99.90
16970;DHT22;8601;48.718;8.992;2022-12-15T14:14:02;0.20;99.90
16970;DHT22;8601;48.718;8.992;2022-12-15T14:16:32;0.20;99.90
16970;DHT22;8601;48.718;8.992;2022-12-15T14:19:10;0.20;99.90
16970;DHT22;8601;48.718;8.992;2022-12-15T14:21:38;0.20;99.90
16970;DHT22;8601;48.718;8.992;2022-12-15T14:24:20;0.30;99.90
16970;DHT22;8601;48.718;8.992;2022-12-15T14:26:48;0.30;99.90
16970;DHT22;8601;48.718;8.992;2022-12-15T14:29:16;0.30;99.90
16970;DHT22;8601;48.718;8.992;2022-12-15T14:31:46;0.10;99.90
16970;DHT22;8601;48.718;8.992;2022-12-15T14:34:20;0.10;99.90
16970;DHT22;8601;48.718;8.992;2022-12-15T14:36:50;0.10;99.90
16970;DHT22;8601;48.718;8.992;2022-12-15T14:39:23;0.10;99.90
16970;DHT22;8601;48.718;8.992;2022-12-15T14:41:53;0.10;99.90
16970;DHT22;8601;48.718;8.992;2022-12-15T14:44:28;0.10;99.90
16970;DHT22;8601;48.718;8.992;2022-12-15T14:46:57;0.00;99.90
16970;DHT22;8601;48.718;8.992;2022-12-15T14:49:27;0.10;99.90
16970;DHT22;8601;48.718;8.992;2022-12-15T14:51:58;0.20;99.90
16970;DHT22;8601;48.718;8.992;2022-12-15T14:54:34;0.10;99.90
16970;DHT22;8601;48.718;8.992;2022-12-15T14:57:12;0.20;99.90
16970;DHT22;8601;48.718;8.992;2022-12-15T14:59:41;0.20;99.90
16970;DHT22;8601;48.718;8.992;2022-12-15T15:02:16;0.10;99.90
16970;DHT22;8601;48.718;8.992;2022-12-15T15:04:57;0.10;99.90
16970;DHT22;8601;48.718;8.992;2022-12-15T15:07:27;0.10;99.90
16970;DHT22;8601;48.718;8.992;2022-12-15T15:09:55;0.00;99.90
16970;DHT22;8601;48.718;8.992;2022-12-15T15:12:27;0.00;99.90
16970;DHT22;8601;48.718;8.992;2022-12-15T15:15:06;-0.10;99.90
16970;DHT22;8601;48.718;8.992;2022-12-15T15:17:36;-0.10;99.90
16970;DHT22;8601;48.718;8.992;2022-12-15T15:20:06;-0.10;99.90
16970;DHT22;8601;48.718;8.992;2022-12-15T15:22:36;-0.10;99.90
16970;DHT22;8601;48.718;8.992;2022-12-15T15:25:25;-0.10;99.90
16970;DHT22;8601;48.718;8.992;2022-12-15T15:28:07;-0.10;99.90
16970;DHT22;8601;48.718;8.992;2022-12-15T15:30:41;-0.10;99.90
16970;DHT22;8601;48.718;8.992;2022-12-15T15:33:09;-0.10;99.90
16970;DHT22;8601;48.718;8.992;2022-12-15T15:35:38;-0.20;99.90
16970;DHT22;8601;48.718;8.992;2022-12-15T15:38:13;-0.20;99.90
16970;DHT22;8601;48.718;8.992;2022-12-15T15:40:42;-0.20;99.90
16970;DHT22;8601;48.718;8.992;2022-12-15T15:43:22;-0.30;99.90
16970;DHT22;8601;48.718;8.992;2022-12-15T15:45:53;-0.20;99.90
16970;DHT22;8601;48.718;8.992;2022-12-15T15:48:25;-0.10;99.90
16970;DHT22;8601;48.718;8.992;2022-12-15T15:50:52;-0.20;99.90
16970;DHT22;8601;48.718;8.992;2022-12-15T15:53:21;-0.20;99.90
16970;DHT22;8601;48.718;8.992;2022-12-15T15:55:50;-0.20;99.90
16970;DHT22;8601;48.718;8.992;2022-12-15T15:58:18;-0.20;99.90
16970;DHT22;8601;48.718;8.992;2022-12-15T16:00:46;-0.20;99.90
16970;DHT22;8601;48.718;8.992;2022-12-15T16:03:13;-0.10;99.90
16970;DHT22;8601;48.718;8.992;2022-12-15T16:05:41;-0.10;99.90
16970;DHT22;8601;48.718;8.992;2022-12-15T16:08:13;-0.10;99.90
16970;DHT22;8601;48.718;8.992;2022-12-15T16:10:42;-0.10;99.90
16970;DHT22;8601;48.718;8.992;2022-12-15T16:13:10;-0.10;99.90
16970;DHT22;8601;48.718;8.992;2022-12-15T16:15:37;-0.10;99.90
16970;DHT22;8601;48.718;8.992;2022-12-15T16:21:02;-0.30;99.90
16970;DHT22;8601;48.718;8.992;2022-12-15T16:23:29;-0.20;99.90
16970;DHT22;8601;48.718;8.992;2022-12-15T16:25:57;-0.30;99.90
16970;DHT22;8601;48.718;8.992;2022-12-15T16:28:26;-0.30;99.90
16970;DHT22;8601;48.718;8.992;2022-12-15T16:30:54;-0.30;99.90
16970;DHT22;8601;48.718;8.992;2022-12-15T16:33:23;-0.20;99.90
16970;DHT22;8601;48.718;8.992;2022-12-15T16:35:50;-0.30;99.90
16970;DHT22;8601;48.718;8.992;2022-12-15T16:38:22;-0.30;99.90
16970;DHT22;8601;48.718;8.992;2022-12-15T16:40:50;-0.20;99.90
16970;DHT22;8601;48.718;8.992;2022-12-15T16:43:19;-0.20;99.90
16970;DHT22;8601;48.718;8.992;2022-12-15T16:45:48;-0.30;99.90
16970;DHT22;8601;48.718;8.992;2022-12-15T16:48:16;-0.20;99.90
16970;DHT22;8601;48.718;8.992;2022-12-15T16:50:45;-0.20;99.90
16970;DHT22;8601;48.718;8.992;2022-12-15T16:53:15;-0.30;99.90
16970;DHT22;8601;48.718;8.992;2022-12-15T16:55:47;-0.20;99.90
16970;DHT22;8601;48.718;8.992;2022-12-15T16:58:16;-0.20;99.90
16970;DHT22;8601;48.718;8.992;2022-12-15T17:00:44;-0.20;99.90
16970;DHT22;8601;48.718;8.992;2022-12-15T17:03:12;-0.20;99.90
16970;DHT22;8601;48.718;8.992;2022-12-15T17:05:39;-0.10;99.90